Time;durP1;ratioP1;P1;durP2;ratioP2;P2;SDS_P1;SDS_P2;PMS_P1;PMS_P2;Temp;Humidity;BMP_temperature;BMP_pressure;BME280_temperature;BME280_humidity;BME280_pressure;Samples;Min_cycle;Max_cycle;Signal;HPM_P1;HPM_P2
2023/07/21 00:02:08;;;;;;;3.67;1.80;;;;;;;;;;5134889;27;20023;-61
2023/07/21 00:04:33;;;;;;;3.80;1.90;;;;;;;;;;5135418;27;20050;-62
2023/07/21 00:06:58;;;;;;;3.70;1.90;;;;;;;;;;5138129;27;20019;-61
2023/07/21 00:09:23;;;;;;;4.40;1.93;;;;;;;;;;5133769;27;20034;-62
2023/07/21 00:11:48;;;;;;;3.55;1.80;;;;;;;;;;5131659;27;20015;-62
2023/07/21 00:14:13;;;;;;;5.53;2.10;;;;;;;;;;5131153;27;20034;-63
2023/07/21 00:16:39;;;;;;;4.43;1.75;;;;;;;;;;5131329;27;20155;-62
2023/07/21 00:19:06;;;;;;;4.40;1.77;;;;;;;;;;5131394;27;20042;-61
2023/07/21 00:21:31;;;;;;;5.75;2.20;;;;;;;;;;5131430;27;20016;-63
2023/07/21 00:23:57;;;;;;;4.00;1.90;;;;;;;;;;5131065;28;20034;-60
2023/07/21 00:26:24;;;;;;;5.00;2.15;;;;;;;;;;5131735;27;20019;-62
2023/07/21 00:28:49;;;;;;;4.65;1.98;;;;;;;;;;5133991;27;20031;-62
2023/07/21 00:31:14;;;;;;;3.65;2.05;;;;;;;;;;5135486;27;20084;-61
2023/07/21 00:33:39;;;;;;;4.73;2.30;;;;;;;;;;5134550;27;20015;-61
2023/07/21 00:36:05;;;;;;;3.87;2.17;;;;;;;;;;5135230;27;20472;-61
2023/07/21 00:38:30;;;;;;;4.88;2.15;;;;;;;;;;5134905;27;20054;-60
2023/07/21 00:40:55;;;;;;;4.15;2.10;;;;;;;;;;5135284;27;20022;-61
2023/07/21 00:43:21;;;;;;;3.90;2.10;;;;;;;;;;5134318;27;20475;-63
2023/07/21 00:45:46;;;;;;;3.73;1.80;;;;;;;;;;5135260;27;20382;-62
2023/07/21 00:48:12;;;;;;;4.10;2.10;;;;;;;;;;5134888;27;20049;-61
2023/07/21 00:50:42;;;;;;;3.70;2.10;;;;;;;;;;5134943;27;20475;-62
2023/07/21 00:53:07;;;;;;;5.07;2.10;;;;;;;;;;5127365;27;20026;-62
2023/07/21 00:55:34;;;;;;;4.30;1.92;;;;;;;;;;5114342;28;20595;-61
2023/07/21 00:57:59;;;;;;;3.45;1.80;;;;;;;;;;5114280;28;20027;-60
2023/07/21 01:00:24;;;;;;;4.43;2.23;;;;;;;;;;5114337;28;20023;-60
2023/07/21 01:02:50;;;;;;;5.70;2.13;;;;;;;;;;5113316;28;20456;-61
2023/07/21 01:05:17;;;;;;;4.03;1.95;;;;;;;;;;5114163;28;20019;-62
2023/07/21 01:07:42;;;;;;;3.42;1.70;;;;;;;;;;5113859;28;20023;-60
2023/07/21 01:10:08;;;;;;;4.55;2.05;;;;;;;;;;5114378;28;20443;-62
2023/07/21 01:12:33;;;;;;;4.15;2.28;;;;;;;;;;5114078;28;20022;-62
2023/07/21 01:14:58;;;;;;;4.80;2.00;;;;;;;;;;5113736;28;20027;-62
2023/07/21 01:17:24;;;;;;;3.80;1.90;;;;;;;;;;5114045;28;20483;-62
2023/07/21 01:19:50;;;;;;;3.92;1.90;;;;;;;;;;5127924;27;20024;-62
2023/07/21 01:22:21;;;;;;;5.45;2.20;;;;;;;;;;5134029;27;20382;-62
2023/07/21 01:25:00;;;;;;;3.92;2.20;;;;;;;;;;5134137;27;20015;-61
2023/07/21 01:27:25;;;;;;;3.70;2.00;;;;;;;;;;5134466;27;20019;-62
2023/07/21 01:29:51;;;;;;;4.13;2.30;;;;;;;;;;5134141;27;20428;-63
2023/07/21 01:32:25;;;;;;;4.68;2.03;;;;;;;;;;5134014;27;20054;-62
2023/07/21 01:34:50;;;;;;;4.07;2.03;;;;;;;;;;5133225;27;20034;-62
2023/07/21 01:37:16;;;;;;;4.35;1.90;;;;;;;;;;5134303;27;20023;-62
2023/07/21 01:39:41;;;;;;;4.35;2.00;;;;;;;;;;5132780;27;20019;-62
2023/07/21 01:42:07;;;;;;;4.35;2.40;;;;;;;;;;5134163;27;20102;-63
2023/07/21 01:44:32;;;;;;;5.10;2.20;;;;;;;;;;5132866;27;20072;-61
2023/07/21 01:46:57;;;;;;;4.13;2.17;;;;;;;;;;5133710;27;20027;-61
2023/07/21 01:49:22;;;;;;;4.03;2.20;;;;;;;;;;5133791;27;20019;-62
2023/07/21 01:51:49;;;;;;;4.00;2.10;;;;;;;;;;5133784;27;20031;-60
2023/07/21 01:54:19;;;;;;;5.13;2.40;;;;;;;;;;5133025;27;20179;-61
2023/07/21 01:56:47;;;;;;;4.30;2.35;;;;;;;;;;5133824;27;20038;-60
2023/07/21 01:59:12;;;;;;;4.57;2.50;;;;;;;;;;5127000;27;20008;-61
2023/07/21 02:01:38;;;;;;;4.50;2.40;;;;;;;;;;5113056;28;20016;-60
2023/07/21 02:04:03;;;;;;;4.13;2.45;;;;;;;;;;5112110;28;20031;-61
2023/07/21 02:06:29;;;;;;;6.20;2.60;;;;;;;;;;5112681;28;20053;-61
2023/07/21 02:08:54;;;;;;;4.50;2.55;;;;;;;;;;5112734;28;20023;-61
2023/07/21 02:11:20;;;;;;;6.10;2.40;;;;;;;;;;5112914;28;20020;-61
2023/07/21 02:13:45;;;;;;;4.32;2.28;;;;;;;;;;5112354;28;20091;-61
2023/07/21 02:16:10;;;;;;;3.88;2.10;;;;;;;;;;5112811;28;20442;-61
2023/07/21 02:18:37;;;;;;;4.83;2.30;;;;;;;;;;5125459;27;20075;-61
2023/07/21 02:21:04;;;;;;;4.35;2.00;;;;;;;;;;5134548;27;20023;-61
2023/07/21 02:23:29;;;;;;;5.25;2.50;;;;;;;;;;5134435;27;20067;-60
2023/07/21 02:25:54;;;;;;;6.20;2.42;;;;;;;;;;5135504;27;20027;-60
2023/07/21 02:28:20;;;;;;;6.83;2.40;;;;;;;;;;5134843;27;20374;-61
2023/07/21 02:30:45;;;;;;;3.97;2.30;;;;;;;;;;5132041;27;20102;-61
2023/07/21 02:33:10;;;;;;;4.47;2.43;;;;;;;;;;5132216;27;20098;-61
2023/07/21 02:35:35;;;;;;;4.10;2.42;;;;;;;;;;5133292;27;20099;-61
2023/07/21 02:38:03;;;;;;;4.40;2.37;;;;;;;;;;5133752;27;20026;-60
2023/07/21 02:40:30;;;;;;;4.45;2.50;;;;;;;;;;5134004;27;20031;-61
2023/07/21 02:42:55;;;;;;;3.95;2.20;;;;;;;;;;5133271;27;20023;-60
2023/07/21 02:45:21;;;;;;;5.70;2.33;;;;;;;;;;5132898;27;20076;-62
2023/07/21 02:47:46;;;;;;;5.47;2.25;;;;;;;;;;5132933;27;20464;-62
2023/07/21 02:50:11;;;;;;;5.47;2.83;;;;;;;;;;5132814;27;20031;-63
2023/07/21 02:52:38;;;;;;;4.20;2.43;;;;;;;;;;5131969;27;20025;-61
2023/07/21 02:55:04;;;;;;;5.05;2.70;;;;;;;;;;5132111;27;20558;-62
2023/07/21 02:57:29;;;;;;;4.25;2.15;;;;;;;;;;5132612;27;20035;-62
2023/07/21 02:59:54;;;;;;;5.63;2.28;;;;;;;;;;5132610;27;20478;-61
2023/07/21 03:02:20;;;;;;;5.50;2.10;;;;;;;;;;5132164;27;20434;-62
2023/07/21 03:04:45;;;;;;;5.13;2.23;;;;;;;;;;5131943;27;20083;-61
2023/07/21 03:07:11;;;;;;;4.50;2.50;;;;;;;;;;5132309;27;20019;-61
2023/07/21 03:09:36;;;;;;;6.65;2.78;;;;;;;;;;5132872;27;20474;-63
2023/07/21 03:12:02;;;;;;;4.82;2.55;;;;;;;;;;5132367;27;20486;-62
2023/07/21 03:14:28;;;;;;;5.28;2.80;;;;;;;;;;5131751;27;20474;-61
2023/07/21 03:16:53;;;;;;;6.60;2.80;;;;;;;;;;5132390;27;20019;-61
2023/07/21 03:19:18;;;;;;;4.30;2.22;;;;;;;;;;5132113;27;20011;-60
2023/07/21 03:21:44;;;;;;;4.55;2.80;;;;;;;;;;5133051;27;20017;-61
2023/07/21 03:24:09;;;;;;;6.20;2.87;;;;;;;;;;5131935;27;20533;-62
2023/07/21 03:26:34;;;;;;;5.83;2.70;;;;;;;;;;5132106;27;20470;-62
2023/07/21 03:28:59;;;;;;;4.95;2.95;;;;;;;;;;5131953;27;20076;-61
2023/07/21 03:31:25;;;;;;;4.97;3.10;;;;;;;;;;5131707;27;20049;-62
2023/07/21 03:33:50;;;;;;;6.10;3.23;;;;;;;;;;5131447;27;20026;-61
2023/07/21 03:36:15;;;;;;;5.03;2.70;;;;;;;;;;5129207;27;20011;-61
2023/07/21 03:38:41;;;;;;;5.60;2.97;;;;;;;;;;5111239;28;20509;-61
2023/07/21 03:41:07;;;;;;;6.68;3.30;;;;;;;;;;5111327;28;20023;-61
2023/07/21 03:43:32;;;;;;;4.75;2.83;;;;;;;;;;5110621;28;20368;-61
2023/07/21 03:45:58;;;;;;;5.20;2.53;;;;;;;;;;5111108;28;20490;-61
2023/07/21 03:48:24;;;;;;;4.60;2.63;;;;;;;;;;5111252;28;20047;-61
2023/07/21 03:50:49;;;;;;;5.43;3.13;;;;;;;;;;5111459;28;20016;-61
2023/07/21 03:53:14;;;;;;;4.77;2.97;;;;;;;;;;5110600;28;20050;-62
2023/07/21 03:55:41;;;;;;;4.83;2.77;;;;;;;;;;5110946;28;20468;-61
2023/07/21 03:58:06;;;;;;;5.53;2.60;;;;;;;;;;5111196;28;20023;-61
2023/07/21 04:00:31;;;;;;;5.18;2.80;;;;;;;;;;5111026;28;20106;-62
2023/07/21 04:02:56;;;;;;;4.85;2.58;;;;;;;;;;5111561;28;20036;-62
2023/07/21 04:05:21;;;;;;;7.32;3.28;;;;;;;;;;5115554;28;20475;-62
2023/07/21 04:07:46;;;;;;;6.77;3.73;;;;;;;;;;5115723;28;20085;-62
2023/07/21 04:10:12;;;;;;;6.25;2.88;;;;;;;;;;5115622;28;20012;-59
2023/07/21 04:12:37;;;;;;;5.70;3.00;;;;;;;;;;5114635;28;20019;-60
2023/07/21 04:15:02;;;;;;;6.63;3.37;;;;;;;;;;5115192;28;20016;-61
2023/07/21 04:17:28;;;;;;;4.30;2.37;;;;;;;;;;5123843;27;20047;-59
2023/07/21 04:19:53;;;;;;;4.43;2.50;;;;;;;;;;5135682;27;20471;-61
2023/07/21 04:22:18;;;;;;;5.80;2.70;;;;;;;;;;5135175;27;20540;-61
2023/07/21 04:24:43;;;;;;;5.15;2.60;;;;;;;;;;5135185;27;20038;-61
2023/07/21 04:27:09;;;;;;;5.43;2.57;;;;;;;;;;5136266;27;20020;-60
2023/07/21 04:29:34;;;;;;;3.88;2.05;;;;;;;;;;5135708;27;20046;-62
2023/07/21 04:31:59;;;;;;;4.17;2.20;;;;;;;;;;5134018;27;20027;-62
2023/07/21 04:34:24;;;;;;;5.90;2.10;;;;;;;;;;5134582;27;20023;-62
2023/07/21 04:36:50;;;;;;;5.07;2.33;;;;;;;;;;5135279;27;20035;-61
2023/07/21 04:39:16;;;;;;;4.78;2.35;;;;;;;;;;5135547;27;20087;-60
2023/07/21 04:41:41;;;;;;;4.37;2.20;;;;;;;;;;5135880;27;20023;-61
2023/07/21 04:44:06;;;;;;;4.50;2.10;;;;;;;;;;5116700;27;20102;-61
2023/07/21 04:46:31;;;;;;;5.10;2.47;;;;;;;;;;5121682;28;20023;-60
2023/07/21 04:48:57;;;;;;;4.53;2.20;;;;;;;;;;5122861;28;20069;-62
2023/07/21 04:51:22;;;;;;;4.53;2.00;;;;;;;;;;5124332;28;20007;-62
2023/07/21 04:53:47;;;;;;;4.93;2.47;;;;;;;;;;5118913;28;20502;-61
2023/07/21 04:56:14;;;;;;;4.32;2.03;;;;;;;;;;5114836;28;20368;-62
2023/07/21 04:58:39;;;;;;;;;;;;;;;;;;5115349;27;20076;-61
2023/07/21 05:01:04;;;;;;;6.07;2.20;;;;;;;;;;5114450;28;19908;-61
2023/07/21 05:03:29;;;;;;;5.25;1.73;;;;;;;;;;5114097;28;20028;-61
2023/07/21 05:05:54;;;;;;;5.10;1.80;;;;;;;;;;5114672;28;20361;-60
2023/07/21 05:08:20;;;;;;;4.53;1.90;;;;;;;;;;5114303;28;20036;-61
2023/07/21 05:10:46;;;;;;;4.03;1.90;;;;;;;;;;5114102;28;20359;-61
2023/07/21 05:13:11;;;;;;;4.75;1.67;;;;;;;;;;5113330;28;20975;-61
2023/07/21 05:15:36;;;;;;;4.33;2.00;;;;;;;;;;5114018;28;20080;-62
2023/07/21 05:18:04;;;;;;;4.53;1.93;;;;;;;;;;5133020;27;20047;-62
2023/07/21 05:20:29;;;;;;;4.40;1.70;;;;;;;;;;5134772;27;20022;-62
2023/07/21 05:22:54;;;;;;;3.87;1.53;;;;;;;;;;5134241;27;20022;-62
2023/07/21 05:25:20;;;;;;;4.60;1.60;;;;;;;;;;5134356;27;20482;-62
2023/07/21 05:27:49;;;;;;;4.03;2.03;;;;;;;;;;5134125;27;20094;-60
2023/07/21 05:30:14;;;;;;;3.95;1.98;;;;;;;;;;5134412;27;20028;-62
2023/07/21 05:32:41;;;;;;;6.50;2.07;;;;;;;;;;5134133;27;20030;-61
2023/07/21 05:35:07;;;;;;;4.90;2.00;;;;;;;;;;5135027;27;20422;-62
2023/07/21 05:37:33;;;;;;;;;;;;;;;;;;5133850;27;20118;-62
2023/07/21 05:39:58;;;;;;;5.40;2.33;;;;;;;;;;5134486;27;19955;-60
2023/07/21 05:42:23;;;;;;;4.00;2.00;;;;;;;;;;5134042;27;20027;-60
2023/07/21 05:44:48;;;;;;;4.53;2.20;;;;;;;;;;5138506;27;20101;-60
2023/07/21 05:47:14;;;;;;;7.03;2.47;;;;;;;;;;5154989;27;20023;-60
2023/07/21 05:49:39;;;;;;;5.87;2.67;;;;;;;;;;5126711;27;20027;-61
2023/07/21 05:52:06;;;;;;;4.20;1.90;;;;;;;;;;5114019;28;20020;-61
2023/07/21 05:54:33;;;;;;;4.10;2.10;;;;;;;;;;5112836;28;20031;-60
2023/07/21 05:56:58;;;;;;;4.10;2.00;;;;;;;;;;5113585;28;20102;-60
2023/07/21 05:59:23;;;;;;;4.50;2.60;;;;;;;;;;5113113;28;20554;-62
2023/07/21 06:01:51;;;;;;;5.43;2.27;;;;;;;;;;5113186;28;20024;-62
2023/07/21 06:04:16;;;;;;;5.15;2.28;;;;;;;;;;5112578;28;20059;-61
2023/07/21 06:06:41;;;;;;;5.10;2.53;;;;;;;;;;5112701;28;20064;-63
2023/07/21 06:09:06;;;;;;;5.25;2.40;;;;;;;;;;5113819;28;20020;-61
2023/07/21 06:11:32;;;;;;;5.13;2.07;;;;;;;;;;5113273;28;20031;-60
2023/07/21 06:13:57;;;;;;;3.57;1.90;;;;;;;;;;5112097;28;20103;-61
2023/07/21 06:16:22;;;;;;;5.57;2.00;;;;;;;;;;5124227;27;20080;-63
2023/07/21 06:18:49;;;;;;;4.82;2.08;;;;;;;;;;5133467;27;20019;-59
2023/07/21 06:21:14;;;;;;;;;;;;;;;;;;5134052;27;20099;-59
2023/07/21 06:23:39;;;;;;;4.45;2.00;;;;;;;;;;5132828;27;19949;-62
2023/07/21 06:26:04;;;;;;;4.80;1.93;;;;;;;;;;5132544;27;20408;-59
2023/07/21 06:28:29;;;;;;;5.20;2.20;;;;;;;;;;5133227;27;20023;-60
2023/07/21 06:30:54;;;;;;;4.23;1.90;;;;;;;;;;5133287;27;20031;-59
2023/07/21 06:33:20;;;;;;;5.20;1.87;;;;;;;;;;5132891;27;20038;-62
2023/07/21 06:35:45;;;;;;;5.72;2.05;;;;;;;;;;5133569;27;20574;-62
2023/07/21 06:38:10;;;;;;;3.60;2.03;;;;;;;;;;5133534;27;20026;-60
2023/07/21 06:40:35;;;;;;;4.85;1.88;;;;;;;;;;5132949;27;20510;-62
2023/07/21 06:43:00;;;;;;;6.82;2.47;;;;;;;;;;5132229;27;20026;-61
2023/07/21 06:45:25;;;;;;;7.18;2.40;;;;;;;;;;5132766;27;20015;-60
2023/07/21 06:47:51;;;;;;;5.50;2.40;;;;;;;;;;5133145;27;20095;-62
2023/07/21 06:50:16;;;;;;;5.20;2.40;;;;;;;;;;5132863;27;20042;-61
2023/07/21 06:52:41;;;;;;;6.00;2.40;;;;;;;;;;5132402;27;20106;-61
2023/07/21 06:55:07;;;;;;;4.32;2.00;;;;;;;;;;5130804;27;20019;-64
2023/07/21 06:57:32;;;;;;;5.88;1.98;;;;;;;;;;5132400;27;20016;-61
2023/07/21 06:59:57;;;;;;;4.50;1.95;;;;;;;;;;5132630;27;20019;-62
2023/07/21 07:02:22;;;;;;;5.50;2.20;;;;;;;;;;5132584;27;20019;-60
2023/07/21 07:04:48;;;;;;;3.83;1.97;;;;;;;;;;5132187;27;20102;-61
2023/07/21 07:07:14;;;;;;;4.80;2.42;;;;;;;;;;5132928;27;20057;-62
2023/07/21 07:09:39;;;;;;;5.07;2.22;;;;;;;;;;5133766;27;20426;-62
2023/07/21 07:12:06;;;;;;;4.10;2.00;;;;;;;;;;5136822;27;20026;-62
2023/07/21 07:14:31;;;;;;;4.20;2.30;;;;;;;;;;5135793;27;20546;-62
2023/07/21 07:16:56;;;;;;;4.77;1.90;;;;;;;;;;5137587;27;20047;-62
2023/07/21 07:19:21;;;;;;;4.40;2.10;;;;;;;;;;5132706;27;20114;-63
2023/07/21 07:21:47;;;;;;;3.40;1.80;;;;;;;;;;5132360;27;20019;-62
2023/07/21 07:24:12;;;;;;;4.53;1.98;;;;;;;;;;5131605;27;20503;-63
2023/07/21 07:26:37;;;;;;;3.90;1.80;;;;;;;;;;5131736;27;20061;-62
2023/07/21 07:29:03;;;;;;;4.60;1.73;;;;;;;;;;5132005;27;20034;-61
2023/07/21 07:31:29;;;;;;;3.75;1.88;;;;;;;;;;5131929;27;20080;-61
2023/07/21 07:33:54;;;;;;;4.00;1.83;;;;;;;;;;5131372;27;20023;-62
2023/07/21 07:36:19;;;;;;;6.10;2.20;;;;;;;;;;5131773;27;20153;-63
2023/07/21 07:38:45;;;;;;;4.37;2.30;;;;;;;;;;5131053;27;20542;-62
2023/07/21 07:41:10;;;;;;;5.50;3.10;;;;;;;;;;5132205;27;20111;-62
2023/07/21 07:43:36;;;;;;;5.63;3.40;;;;;;;;;;5131231;27;20090;-62
2023/07/21 07:46:01;;;;;;;4.90;2.70;;;;;;;;;;5138379;27;20465;-63
2023/07/21 07:48:26;;;;;;;4.85;2.30;;;;;;;;;;5152600;27;20022;-62
2023/07/21 07:50:53;;;;;;;4.67;2.30;;;;;;;;;;5152881;27;20019;-60
2023/07/21 07:53:19;;;;;;;4.60;1.85;;;;;;;;;;5151664;27;20471;-62
2023/07/21 07:55:44;;;;;;;3.42;1.70;;;;;;;;;;5152237;27;20034;-63
2023/07/21 07:58:09;;;;;;;7.13;1.90;;;;;;;;;;5152428;27;20019;-62
2023/07/21 08:00:36;;;;;;;3.50;1.77;;;;;;;;;;5133007;27;20399;-62
2023/07/21 08:03:02;;;;;;;3.60;1.70;;;;;;;;;;5110502;28;20050;-63
2023/07/21 08:05:27;;;;;;;3.65;1.60;;;;;;;;;;5111180;28;20035;-61
2023/07/21 08:07:53;;;;;;;3.45;1.80;;;;;;;;;;5110959;28;20122;-63
2023/07/21 08:10:18;;;;;;;5.00;1.67;;;;;;;;;;5110981;28;20019;-62
2023/07/21 08:12:43;;;;;;;3.27;1.57;;;;;;;;;;5110380;28;20065;-63
2023/07/21 08:15:09;;;;;;;3.67;1.60;;;;;;;;;;5128933;28;20021;-63
2023/07/21 08:17:34;;;;;;;;;;;;;;;;;;5131826;27;20081;-62
2023/07/21 08:19:59;;;;;;;3.42;1.58;;;;;;;;;;5131344;27;19903;-62
2023/07/21 08:22:24;;;;;;;3.80;1.63;;;;;;;;;;5131332;27;20038;-62
2023/07/21 08:24:50;;;;;;;6.82;1.83;;;;;;;;;;5131029;28;20435;-63
2023/07/21 08:27:15;;;;;;;4.47;1.60;;;;;;;;;;5131007;28;20051;-63
2023/07/21 08:29:40;;;;;;;3.20;1.60;;;;;;;;;;5131234;27;20031;-61
2023/07/21 08:32:05;;;;;;;3.30;1.70;;;;;;;;;;5131517;28;20023;-62
2023/07/21 08:34:30;;;;;;;4.57;1.60;;;;;;;;;;5130931;27;20130;-60
2023/07/21 08:36:55;;;;;;;3.20;1.48;;;;;;;;;;5131238;27;20170;-62
2023/07/21 08:39:21;;;;;;;6.10;2.17;;;;;;;;;;5131344;27;20027;-62
2023/07/21 08:41:49;;;;;;;4.97;1.63;;;;;;;;;;5131203;28;20023;-63
2023/07/21 08:44:15;;;;;;;4.40;1.70;;;;;;;;;;5130897;27;20068;-62
2023/07/21 08:46:40;;;;;;;4.25;1.60;;;;;;;;;;5132140;27;20023;-62
2023/07/21 08:49:06;;;;;;;3.50;1.42;;;;;;;;;;5132431;27;20050;-61
2023/07/21 08:51:31;;;;;;;3.15;1.40;;;;;;;;;;5134865;27;20019;-61
2023/07/21 08:53:56;;;;;;;4.67;1.20;;;;;;;;;;5134303;27;20394;-62
2023/07/21 08:56:21;;;;;;;3.37;1.50;;;;;;;;;;5134624;27;20015;-62
2023/07/21 08:58:47;;;;;;;3.55;1.27;;;;;;;;;;5134972;27;20110;-61
2023/07/21 09:01:12;;;;;;;3.97;1.38;;;;;;;;;;5134953;27;20027;-63
2023/07/21 09:03:43;;;;;;;4.00;1.52;;;;;;;;;;5134146;27;20031;-62
2023/07/21 09:06:11;;;;;;;5.88;1.42;;;;;;;;;;5131119;27;20030;-63
2023/07/21 09:08:36;;;;;;;5.30;1.73;;;;;;;;;;5116149;28;20019;-61
2023/07/21 09:11:02;;;;;;;3.43;1.60;;;;;;;;;;5116427;28;20031;-63
2023/07/21 09:13:28;;;;;;;2.72;1.30;;;;;;;;;;5132053;27;20079;-61
2023/07/21 09:15:54;;;;;;;4.75;1.60;;;;;;;;;;5141239;27;20038;-62
2023/07/21 09:18:23;;;;;;;4.00;1.48;;;;;;;;;;5136189;27;20023;-62
2023/07/21 09:20:49;;;;;;;3.83;1.70;;;;;;;;;;5135119;27;20026;-62
2023/07/21 09:23:17;;;;;;;4.40;1.50;;;;;;;;;;5132836;27;20019;-62
2023/07/21 09:25:53;;;;;;;3.80;1.50;;;;;;;;;;5134760;27;20379;-62
2023/07/21 09:28:18;;;;;;;3.45;1.50;;;;;;;;;;5134267;27;20023;-62
2023/07/21 09:30:51;;;;;;;4.00;1.60;;;;;;;;;;5135098;27;20026;-62
2023/07/21 09:33:20;;;;;;;4.13;1.45;;;;;;;;;;5143438;27;20516;-61
2023/07/21 09:35:46;;;;;;;3.38;1.40;;;;;;;;;;5144962;27;20063;-62
2023/07/21 09:38:11;;;;;;;2.72;1.20;;;;;;;;;;5149915;27;20015;-61
2023/07/21 09:40:40;;;;;;;4.83;1.80;;;;;;;;;;5150762;27;20331;-63
2023/07/21 09:43:05;;;;;;;4.35;1.63;;;;;;;;;;5134232;27;20620;-63
2023/07/21 09:45:30;;;;;;;3.33;1.40;;;;;;;;;;5134244;27;20015;-62
2023/07/21 09:47:56;;;;;;;3.20;1.30;;;;;;;;;;5133948;27;20022;-62
2023/07/21 09:50:21;;;;;;;4.72;1.40;;;;;;;;;;5133795;27;20386;-62
2023/07/21 09:52:47;;;;;;;3.20;1.20;;;;;;;;;;5133212;27;20068;-63
2023/07/21 09:55:13;;;;;;;;;;;;;;;;;;5134373;27;20440;-63
2023/07/21 09:57:45;;;;;;;3.10;1.10;;;;;;;;;;5133341;27;19910;-62
2023/07/21 10:00:14;;;;;;;4.28;1.42;;;;;;;;;;5132799;27;20019;-62
2023/07/21 10:02:41;;;;;;;3.63;1.27;;;;;;;;;;5132932;27;20023;-60
2023/07/21 10:05:09;;;;;;;3.30;1.17;;;;;;;;;;5133543;27;20019;-61
2023/07/21 10:07:34;;;;;;;3.80;1.52;;;;;;;;;;5133103;27;20019;-61
2023/07/21 10:10:00;;;;;;;4.15;1.60;;;;;;;;;;5133539;27;20027;-61
2023/07/21 10:12:25;;;;;;;;;;;;;;;;;;5124622;27;20174;-62
2023/07/21 10:14:51;;;;;;;3.17;1.30;;;;;;;;;;5112305;28;20355;-63
2023/07/21 10:17:16;;;;;;;;;;;;;;;;;;5113354;28;20022;-60
2023/07/21 10:19:42;;;;;;;3.43;1.50;;;;;;;;;;5112623;28;19904;-61
2023/07/21 10:22:12;;;;;;;4.18;1.35;;;;;;;;;;5112533;27;20476;-61
2023/07/21 10:24:42;;;;;;;5.20;1.40;;;;;;;;;;5112242;27;20022;-63
2023/07/21 10:27:07;;;;;;;4.55;1.52;;;;;;;;;;5112285;28;20373;-61
2023/07/21 10:29:32;;;;;;;3.27;1.43;;;;;;;;;;5112597;28;20098;-62
2023/07/21 10:31:58;;;;;;;;;;;;;;;;;;5112943;28;20035;-61
2023/07/21 10:34:34;;;;;;;2.83;1.33;;;;;;;;;;5112047;28;19950;-62
2023/07/21 10:37:02;;;;;;;3.10;1.30;;;;;;;;;;5112248;28;20513;-63
2023/07/21 10:39:38;;;;;;;3.22;1.48;;;;;;;;;;5112450;28;20076;-63
2023/07/21 10:42:05;;;;;;;3.35;1.50;;;;;;;;;;5112226;28;20016;-61
2023/07/21 10:44:48;;;;;;;3.42;1.50;;;;;;;;;;5111269;27;20020;-63
2023/07/21 10:47:20;;;;;;;6.25;1.42;;;;;;;;;;5112139;28;20019;-61
2023/07/21 10:49:46;;;;;;;5.50;1.70;;;;;;;;;;5112030;28;20020;-62
2023/07/21 10:52:11;;;;;;;4.05;1.60;;;;;;;;;;5112154;28;20352;-63
2023/07/21 10:54:36;;;;;;;;;;;;;;;;;;5112261;28;20049;-62
2023/07/21 10:57:02;;;;;;;3.10;1.60;;;;;;;;;;5112015;28;19955;-61
2023/07/21 10:59:30;;;;;;;3.28;1.55;;;;;;;;;;5111555;28;20020;-64
2023/07/21 11:01:55;;;;;;;3.78;1.80;;;;;;;;;;5112116;28;20145;-63
2023/07/21 11:04:21;;;;;;;4.33;1.80;;;;;;;;;;5111159;28;20061;-63
2023/07/21 11:06:50;;;;;;;4.05;1.73;;;;;;;;;;5111791;28;20024;-62
2023/07/21 11:09:17;;;;;;;7.95;2.00;;;;;;;;;;5111893;28;20035;-63
2023/07/21 11:11:44;;;;;;;3.67;1.77;;;;;;;;;;5120803;27;20496;-63
2023/07/21 11:14:10;;;;;;;;;;;;;;;;;;5132312;27;20122;-59
2023/07/21 11:16:40;;;;;;;5.55;2.15;;;;;;;;;;5132481;27;19911;-61
2023/07/21 11:19:06;;;;;;;4.65;2.10;;;;;;;;;;5130712;27;20011;-63
2023/07/21 11:21:33;;;;;;;4.15;1.92;;;;;;;;;;5132562;27;20022;-61
2023/07/21 11:24:02;;;;;;;4.30;1.90;;;;;;;;;;5131653;27;20012;-61
2023/07/21 11:26:27;;;;;;;3.70;2.00;;;;;;;;;;5131859;27;20019;-62
2023/07/21 11:28:52;;;;;;;5.13;2.20;;;;;;;;;;5132370;27;20068;-62
2023/07/21 11:31:20;;;;;;;5.30;2.37;;;;;;;;;;5132090;27;20027;-60
2023/07/21 11:33:49;;;;;;;3.45;1.65;;;;;;;;;;5131515;27;20113;-62
2023/07/21 11:36:18;;;;;;;4.18;1.98;;;;;;;;;;5132181;27;20027;-61
2023/07/21 11:39:03;;;;;;;5.38;2.10;;;;;;;;;;5131958;27;20023;-61
2023/07/21 11:41:40;;;;;;;5.32;2.03;;;;;;;;;;5131868;27;20027;-61
2023/07/21 11:44:10;;;;;;;6.40;2.20;;;;;;;;;;5131307;27;20095;-63
2023/07/21 11:46:35;;;;;;;5.05;2.28;;;;;;;;;;5131870;27;20053;-63
2023/07/21 11:49:00;;;;;;;5.85;2.20;;;;;;;;;;5131268;27;20051;-60
2023/07/21 11:51:27;;;;;;;4.77;2.10;;;;;;;;;;5112461;28;20024;-60
2023/07/21 11:53:52;;;;;;;6.05;2.47;;;;;;;;;;5111037;28;20387;-60
2023/07/21 11:56:17;;;;;;;4.33;2.07;;;;;;;;;;5114146;28;20023;-60
2023/07/21 11:58:43;;;;;;;5.85;2.50;;;;;;;;;;5117024;28;20427;-62
2023/07/21 12:01:08;;;;;;;4.73;2.30;;;;;;;;;;5119361;28;20019;-61
2023/07/21 12:03:36;;;;;;;5.57;2.70;;;;;;;;;;5117351;28;20444;-61
2023/07/21 12:06:02;;;;;;;4.40;2.10;;;;;;;;;;5110991;28;20604;-62
2023/07/21 12:08:29;;;;;;;;;;;;;;;;;;5111148;28;20023;-61
2023/07/21 12:10:54;;;;;;;7.15;2.50;;;;;;;;;;5121483;28;19911;-62
2023/07/21 12:13:19;;;;;;;5.70;2.43;;;;;;;;;;5131180;27;20072;-62
2023/07/21 12:15:44;;;;;;;5.93;2.88;;;;;;;;;;5130231;27;20053;-64
2023/07/21 12:18:09;;;;;;;4.70;2.72;;;;;;;;;;5131693;28;20031;-62
2023/07/21 12:20:35;;;;;;;8.00;2.63;;;;;;;;;;5131280;28;20478;-62
2023/07/21 12:23:00;;;;;;;5.53;2.87;;;;;;;;;;5130706;27;20019;-64
2023/07/21 12:25:25;;;;;;;6.60;3.33;;;;;;;;;;5135240;27;20019;-61
2023/07/21 12:27:50;;;;;;;5.23;3.00;;;;;;;;;;5134360;27;20019;-63
2023/07/21 12:30:15;;;;;;;5.33;3.00;;;;;;;;;;5135434;27;20107;-63
2023/07/21 12:32:41;;;;;;;6.73;3.40;;;;;;;;;;5134722;27;20019;-63
2023/07/21 12:35:07;;;;;;;5.55;3.05;;;;;;;;;;5135394;27;20083;-64
2023/07/21 12:37:32;;;;;;;5.20;3.00;;;;;;;;;;5135316;27;20047;-62
2023/07/21 12:39:58;;;;;;;4.57;2.60;;;;;;;;;;5135491;27;20019;-63
2023/07/21 12:42:23;;;;;;;5.70;2.72;;;;;;;;;;5134866;27;20011;-63
2023/07/21 12:44:48;;;;;;;5.43;2.67;;;;;;;;;;5134716;27;20020;-62
2023/07/21 12:47:14;;;;;;;5.37;2.60;;;;;;;;;;5135020;27;20031;-64
2023/07/21 12:49:39;;;;;;;7.10;2.80;;;;;;;;;;5135039;27;20514;-62
2023/07/21 12:52:04;;;;;;;5.03;2.23;;;;;;;;;;5134799;27;20476;-63
2023/07/21 12:54:29;;;;;;;5.88;2.63;;;;;;;;;;5134095;27;20098;-62
2023/07/21 12:56:55;;;;;;;4.23;2.33;;;;;;;;;;5116842;27;20077;-62
2023/07/21 12:59:20;;;;;;;5.53;2.87;;;;;;;;;;5114109;28;20020;-64
2023/07/21 13:01:45;;;;;;;4.60;2.60;;;;;;;;;;5114029;28;20030;-63
2023/07/21 13:04:12;;;;;;;4.90;2.77;;;;;;;;;;5113960;27;20028;-62
2023/07/21 13:06:37;;;;;;;4.75;2.60;;;;;;;;;;5114446;28;20031;-63
2023/07/21 13:09:02;;;;;;;5.43;2.60;;;;;;;;;;5118240;27;20420;-63
2023/07/21 13:11:28;;;;;;;5.47;2.80;;;;;;;;;;5134712;27;20425;-63
2023/07/21 13:13:53;;;;;;;4.85;2.67;;;;;;;;;;5133892;27;20026;-61
2023/07/21 13:16:18;;;;;;;5.83;3.03;;;;;;;;;;5134476;27;20046;-63
2023/07/21 13:18:43;;;;;;;6.10;2.20;;;;;;;;;;5134724;27;20482;-61
2023/07/21 13:21:08;;;;;;;4.67;2.50;;;;;;;;;;5133004;27;20015;-62
2023/07/21 13:23:34;;;;;;;5.95;2.92;;;;;;;;;;5133967;27;20417;-62
2023/07/21 13:25:59;;;;;;;6.03;3.03;;;;;;;;;;5134355;27;20118;-62
2023/07/21 13:28:24;;;;;;;5.30;2.37;;;;;;;;;;5133863;27;20063;-63
2023/07/21 13:30:49;;;;;;;5.17;2.50;;;;;;;;;;5133984;27;20045;-62
2023/07/21 13:33:14;;;;;;;7.40;2.70;;;;;;;;;;5133630;27;20023;-64
2023/07/21 13:35:39;;;;;;;5.30;2.70;;;;;;;;;;5133808;27;20110;-62
2023/07/21 13:38:05;;;;;;;4.87;2.70;;;;;;;;;;5134188;27;20042;-62
2023/07/21 13:40:30;;;;;;;5.00;2.73;;;;;;;;;;5133720;27;20015;-62
2023/07/21 13:42:55;;;;;;;5.50;2.22;;;;;;;;;;5133545;27;20019;-62
2023/07/21 13:45:20;;;;;;;6.27;2.87;;;;;;;;;;5133965;27;20027;-62
2023/07/21 13:47:45;;;;;;;4.77;2.33;;;;;;;;;;5134088;27;20023;-63
2023/07/21 13:50:11;;;;;;;5.70;2.80;;;;;;;;;;5133926;27;20024;-62
2023/07/21 13:52:36;;;;;;;5.80;2.40;;;;;;;;;;5132971;27;20015;-61
2023/07/21 13:55:01;;;;;;;4.93;2.55;;;;;;;;;;5133979;27;20027;-66
2023/07/21 13:57:27;;;;;;;4.83;2.37;;;;;;;;;;5133942;27;20148;-60
2023/07/21 13:59:52;;;;;;;4.80;2.15;;;;;;;;;;5133657;27;20023;-62
2023/07/21 14:02:18;;;;;;;6.22;2.40;;;;;;;;;;5122360;27;20027;-61
2023/07/21 14:04:43;;;;;;;4.45;2.28;;;;;;;;;;5112710;28;20023;-63
2023/07/21 14:07:08;;;;;;;4.33;2.23;;;;;;;;;;5113662;28;20032;-63
2023/07/21 14:09:35;;;;;;;4.23;2.07;;;;;;;;;;5133461;27;20148;-60
2023/07/21 14:12:00;;;;;;;;;;;;;;;;;;5134015;27;20015;-61
2023/07/21 14:14:25;;;;;;;4.88;2.10;;;;;;;;;;5132705;27;19907;-61
2023/07/21 14:16:50;;;;;;;5.37;2.00;;;;;;;;;;5133795;27;20022;-61
2023/07/21 14:19:15;;;;;;;3.83;1.93;;;;;;;;;;5135092;27;20027;-61
2023/07/21 14:21:40;;;;;;;4.20;2.00;;;;;;;;;;5135055;27;20102;-61
2023/07/21 14:24:06;;;;;;;4.53;2.17;;;;;;;;;;5135798;27;20424;-61
2023/07/21 14:26:31;;;;;;;4.03;2.13;;;;;;;;;;5134856;27;20378;-61
2023/07/21 14:28:56;;;;;;;4.37;2.10;;;;;;;;;;5133323;27;20051;-61
2023/07/21 14:31:21;;;;;;;3.80;1.90;;;;;;;;;;5133081;27;20026;-62
2023/07/21 14:33:47;;;;;;;5.30;1.70;;;;;;;;;;5131216;27;20374;-60
2023/07/21 14:36:12;;;;;;;3.75;1.90;;;;;;;;;;5132792;27;20042;-62
2023/07/21 14:38:37;;;;;;;5.07;2.00;;;;;;;;;;5132997;27;20015;-62